createdAt,value
2023-04-28T00:00:09.762Z,85.53
2023-04-28T00:02:38.053Z,85.43
2023-04-28T00:05:07.462Z,85.85
2023-04-28T00:07:37.502Z,85.52
2023-04-28T00:10:37.700Z,85.55
2023-04-28T00:13:06.156Z,85.99
2023-04-28T00:15:34.475Z,86.09
2023-04-28T00:18:02.693Z,85.89
2023-04-28T00:20:30.920Z,85.82
2023-04-28T00:23:00.432Z,85.25
2023-04-28T00:25:30.713Z,85.64
2023-04-28T00:27:58.900Z,85.37
2023-04-28T00:30:27.131Z,84.92
2023-04-28T00:32:56.283Z,85.82
2023-04-28T00:35:24.783Z,86.00
2023-04-28T00:37:52.973Z,86.02
2023-04-28T00:40:22.513Z,86.68
2023-04-28T00:42:51.748Z,86.83
2023-04-28T00:45:20.038Z,86.72
2023-04-28T00:47:48.239Z,87.32
2023-04-28T00:50:18.214Z,87.74
2023-04-28T00:52:46.816Z,88.17
2023-04-28T00:55:17.004Z,87.21
2023-04-28T00:57:47.214Z,86.09
2023-04-28T01:00:17.829Z,86.27
2023-04-28T01:02:46.139Z,85.52
2023-04-28T01:05:15.946Z,85.40
2023-04-28T01:07:44.345Z,85.75
2023-04-28T01:10:13.100Z,85.03
2023-04-28T01:12:41.355Z,86.13
2023-04-28T01:15:17.951Z,86.88
2023-04-28T01:17:47.935Z,86.68
2023-04-28T01:20:16.596Z,87.30
2023-04-28T01:22:45.060Z,87.61
2023-04-28T01:25:14.573Z,86.79
2023-04-28T01:27:42.733Z,87.27
2023-04-28T01:30:11.969Z,87.50
2023-04-28T01:32:40.614Z,87.54
2023-04-28T01:35:09.617Z,88.01
2023-04-28T01:37:38.114Z,88.19
2023-04-28T01:40:08.169Z,87.86
2023-04-28T01:42:37.742Z,88.00
2023-04-28T01:45:07.472Z,88.17
2023-04-28T01:47:35.945Z,87.24
2023-04-28T01:50:04.363Z,88.10
2023-04-28T01:52:32.638Z,88.10
2023-04-28T01:55:01.027Z,87.60
2023-04-28T01:57:29.380Z,88.95
2023-04-28T02:00:00.708Z,89.28
2023-04-28T02:02:29.588Z,90.34
2023-04-28T02:05:01.036Z,92.10
2023-04-28T02:07:29.671Z,92.27
2023-04-28T02:10:00.629Z,93.34
2023-04-28T02:12:54.056Z,93.96
2023-04-28T02:15:23.688Z,94.88
2023-04-28T02:17:52.048Z,94.53
2023-04-28T02:20:21.079Z,94.38
2023-04-28T02:22:50.067Z,94.40
2023-04-28T02:25:18.525Z,94.47
2023-04-28T02:27:47.100Z,94.57
2023-04-28T02:30:15.613Z,94.06
2023-04-28T02:32:45.682Z,94.60
2023-04-28T02:35:16.965Z,94.55
2023-04-28T02:37:45.444Z,94.50
2023-04-28T02:40:14.818Z,95.41
2023-04-28T02:42:43.052Z,95.71
2023-04-28T02:45:12.529Z,95.87
2023-04-28T02:47:41.327Z,97.56
2023-04-28T02:50:11.955Z,97.83
2023-04-28T02:52:40.301Z,98.34
2023-04-28T02:55:09.663Z,98.28
2023-04-28T02:57:37.934Z,99.59
2023-04-28T03:00:09.518Z,99.78
2023-04-28T03:02:45.682Z,99.39
2023-04-28T03:05:15.511Z,99.35
2023-04-28T03:07:44.414Z,98.85
2023-04-28T03:10:12.900Z,99.37
2023-04-28T03:12:41.350Z,98.69
2023-04-28T03:15:12.095Z,98.83
2023-04-28T03:17:43.313Z,97.91
2023-04-28T03:20:14.415Z,97.68
2023-04-28T03:22:42.669Z,96.98
2023-04-28T03:25:11.300Z,96.25
2023-04-28T03:27:47.784Z,96.53
2023-04-28T03:30:16.331Z,97.07
2023-04-28T03:32:44.641Z,98.56
2023-04-28T03:35:14.435Z,98.85
2023-04-28T03:37:43.387Z,98.47
2023-04-28T03:40:13.319Z,98.70
2023-04-28T03:43:01.256Z,98.57
2023-04-28T03:45:37.709Z,98.53
2023-04-28T03:48:07.165Z,99.91
2023-04-28T03:50:36.880Z,99.77
2023-04-28T03:53:05.258Z,100.00
2023-04-28T03:55:34.497Z,99.48
2023-04-28T03:58:02.861Z,100.00
2023-04-28T04:00:31.324Z,100.00
2023-04-28T04:02:59.725Z,100.00
2023-04-28T04:05:59.675Z,100.00
2023-04-28T04:08:28.122Z,100.00
2023-04-28T04:10:57.409Z,100.00
2023-04-28T04:13:25.892Z,100.00
2023-04-28T04:15:54.468Z,100.00
2023-04-28T04:18:25.381Z,100.00
2023-04-28T04:21:15.478Z,100.00
2023-04-28T04:23:43.701Z,100.00
2023-04-28T04:26:13.288Z,100.00
2023-04-28T04:28:41.557Z,100.00
2023-04-28T04:31:11.132Z,100.00
2023-04-28T04:33:39.432Z,100.00
2023-04-28T04:36:09.255Z,100.00
2023-04-28T04:38:38.906Z,100.00
2023-04-28T04:41:17.841Z,100.00
2023-04-28T04:43:46.206Z,100.00
2023-04-28T04:46:15.270Z,100.00
2023-04-28T04:48:43.682Z,100.00
2023-04-28T04:51:12.056Z,100.00
2023-04-28T04:53:41.955Z,100.00
2023-04-28T04:56:11.058Z,100.00
2023-04-28T04:58:39.521Z,100.00
2023-04-28T05:01:31.037Z,100.00
2023-04-28T05:03:59.786Z,100.00
2023-04-28T05:06:28.276Z,100.00
2023-04-28T05:08:59.272Z,100.00
2023-04-28T05:11:28.281Z,100.00
2023-04-28T05:13:56.523Z,100.00
2023-04-28T05:16:25.706Z,100.00
2023-04-28T05:19:26.490Z,100.00
2023-04-28T05:21:55.068Z,100.00
2023-04-28T05:24:26.214Z,100.00
2023-04-28T05:26:55.094Z,100.00
2023-04-28T05:29:23.329Z,100.00
2023-04-28T05:31:51.784Z,100.00
2023-04-28T05:34:21.764Z,100.00
2023-04-28T05:36:50.218Z,100.00
2023-04-28T05:39:19.786Z,100.00
2023-04-28T05:41:49.471Z,100.00
2023-04-28T05:44:18.029Z,100.00
2023-04-28T05:46:48.238Z,100.00
2023-04-28T05:49:19.813Z,100.00
2023-04-28T05:51:48.068Z,100.00
2023-04-28T05:54:17.805Z,100.00
2023-04-28T05:56:51.410Z,100.00
2023-04-28T05:59:20.071Z,100.00
2023-04-28T06:01:48.748Z,100.00
2023-04-28T06:04:27.752Z,100.00
2023-04-28T06:06:56.518Z,100.00
2023-04-28T06:09:33.262Z,100.00
2023-04-28T06:12:04.782Z,100.00
2023-04-28T06:14:33.085Z,100.00
2023-04-28T06:17:02.296Z,100.00
2023-04-28T06:19:30.815Z,100.00
2023-04-28T06:21:59.192Z,100.00
2023-04-28T06:24:27.389Z,100.00
2023-04-28T06:26:57.951Z,100.00
2023-04-28T06:29:27.947Z,100.00
2023-04-28T06:31:57.733Z,100.00
2023-04-28T06:34:28.906Z,100.00
2023-04-28T06:36:57.798Z,100.00
2023-04-28T06:39:27.853Z,100.00
2023-04-28T06:41:56.126Z,100.00
2023-04-28T06:44:28.462Z,100.00
2023-04-28T06:46:57.663Z,100.00
2023-04-28T06:49:26.112Z,100.00
2023-04-28T06:52:00.653Z,100.00
2023-04-28T06:54:32.047Z,100.00
2023-04-28T06:57:00.898Z,100.00
2023-04-28T06:59:30.481Z,100.00
2023-04-28T07:01:58.771Z,100.00
2023-04-28T07:04:27.327Z,100.00
2023-04-28T07:06:55.700Z,100.00
2023-04-28T07:09:31.348Z,100.00
2023-04-28T07:11:59.713Z,100.00
2023-04-28T07:14:27.971Z,100.00
2023-04-28T07:16:57.749Z,100.00
2023-04-28T07:19:26.019Z,100.00
2023-04-28T07:21:54.267Z,100.00
2023-04-28T07:24:23.421Z,100.00
2023-04-28T07:26:52.220Z,100.00
2023-04-28T07:29:20.530Z,100.00
2023-04-28T07:31:48.874Z,100.00
2023-04-28T07:34:18.736Z,100.00
2023-04-28T07:36:47.247Z,100.00
2023-04-28T07:39:16.244Z,100.00
2023-04-28T07:41:44.572Z,100.00
2023-04-28T07:44:13.098Z,100.00
2023-04-28T07:46:41.536Z,100.00
2023-04-28T07:49:09.862Z,100.00
2023-04-28T07:51:39.448Z,100.00
2023-04-28T07:54:07.698Z,100.00
2023-04-28T07:56:36.062Z,100.00
2023-04-28T07:59:04.354Z,100.00
2023-04-28T08:01:32.633Z,100.00
2023-04-28T08:04:01.395Z,100.00
2023-04-28T08:06:30.119Z,100.00
2023-04-28T08:08:59.888Z,100.00
2023-04-28T08:11:28.251Z,100.00
2023-04-28T08:14:01.164Z,100.00
2023-04-28T08:16:30.239Z,100.00
2023-04-28T08:18:59.023Z,100.00
2023-04-28T08:21:27.719Z,100.00
2023-04-28T08:23:56.033Z,100.00
2023-04-28T08:26:26.570Z,100.00
2023-04-28T08:28:54.762Z,100.00
2023-04-28T08:31:23.880Z,100.00
2023-04-28T08:33:52.239Z,100.00
2023-04-28T08:36:21.258Z,100.00
2023-04-28T08:38:49.914Z,100.00
2023-04-28T08:41:19.542Z,100.00
2023-04-28T08:43:49.777Z,100.00
2023-04-28T08:46:22.958Z,100.00
2023-04-28T08:48:52.750Z,100.00
2023-04-28T08:51:34.329Z,100.00
2023-04-28T08:54:22.847Z,100.00
2023-04-28T08:56:53.865Z,100.00
2023-04-28T08:59:23.540Z,100.00
2023-04-28T09:01:53.420Z,100.00
2023-04-28T09:04:22.464Z,100.00
2023-04-28T09:06:50.933Z,100.00
2023-04-28T09:09:27.399Z,100.00
2023-04-28T09:11:58.696Z,100.00
2023-04-28T09:14:29.949Z,100.00
2023-04-28T09:16:58.632Z,100.00
2023-04-28T09:19:36.126Z,100.00
2023-04-28T09:22:24.120Z,100.00
2023-04-28T09:24:55.442Z,100.00
2023-04-28T09:27:29.187Z,100.00
2023-04-28T09:29:58.901Z,100.00
2023-04-28T09:32:28.798Z,100.00
2023-04-28T09:34:57.717Z,100.00
2023-04-28T09:37:30.806Z,100.00
2023-04-28T09:40:05.315Z,100.00
2023-04-28T09:42:35.460Z,100.00
2023-04-28T09:45:07.315Z,100.00
2023-04-28T09:47:37.593Z,100.00
2023-04-28T09:50:09.556Z,100.00
2023-04-28T09:52:37.883Z,100.00
2023-04-28T09:55:08.807Z,100.00
2023-04-28T09:57:38.034Z,100.00
2023-04-28T10:00:10.229Z,100.00
2023-04-28T10:03:03.418Z,100.00
2023-04-28T10:05:33.919Z,100.00
2023-04-28T10:08:03.687Z,100.00
2023-04-28T10:10:32.913Z,100.00
2023-04-28T10:13:02.990Z,100.00
2023-04-28T10:15:34.051Z,100.00
2023-04-28T10:18:03.873Z,100.00
2023-04-28T10:20:32.656Z,100.00
2023-04-28T10:23:18.600Z,100.00
2023-04-28T10:25:50.736Z,100.00
2023-04-28T10:28:19.770Z,100.00
2023-04-28T10:31:11.017Z,100.00
2023-04-28T10:33:39.885Z,100.00
2023-04-28T10:36:09.247Z,100.00
2023-04-28T10:39:10.964Z,100.00
2023-04-28T10:41:39.249Z,100.00
2023-04-28T10:44:43.836Z,100.00
2023-04-28T10:47:13.478Z,100.00
2023-04-28T10:50:11.625Z,100.00
2023-04-28T10:52:52.541Z,100.00
2023-04-28T10:55:36.527Z,100.00
2023-04-28T10:58:34.008Z,100.00
2023-04-28T11:01:29.917Z,100.00
2023-04-28T11:04:03.281Z,100.00
2023-04-28T11:06:34.353Z,100.00
2023-04-28T11:09:04.810Z,100.00
2023-04-28T11:11:35.091Z,100.00
2023-04-28T11:14:35.033Z,100.00
2023-04-28T11:17:05.742Z,100.00
2023-04-28T11:19:37.846Z,100.00
2023-04-28T11:22:15.598Z,100.00
2023-04-28T11:24:57.189Z,100.00
2023-04-28T11:27:26.884Z,100.00
2023-04-28T11:29:55.781Z,100.00
2023-04-28T11:32:29.433Z,100.00
2023-04-28T11:34:59.124Z,100.00
2023-04-28T11:37:27.549Z,100.00
2023-04-28T11:39:55.830Z,100.00
2023-04-28T11:42:25.959Z,100.00
2023-04-28T11:44:55.696Z,100.00
2023-04-28T11:47:32.906Z,100.00
2023-04-28T11:50:03.445Z,100.00
2023-04-28T11:52:31.826Z,100.00
2023-04-28T11:55:02.386Z,100.00
2023-04-28T11:57:30.869Z,100.00
2023-04-28T12:00:15.149Z,100.00
2023-04-28T12:02:43.743Z,100.00
2023-04-28T12:05:18.597Z,100.00
2023-04-28T12:07:46.920Z,100.00
2023-04-28T12:10:23.668Z,100.00
2023-04-28T12:12:53.428Z,100.00
2023-04-28T12:15:24.755Z,100.00
2023-04-28T12:17:53.458Z,100.00
2023-04-28T12:20:41.676Z,100.00
2023-04-28T12:23:13.236Z,100.00
2023-04-28T12:25:45.730Z,100.00
2023-04-28T12:28:14.057Z,100.00
2023-04-28T12:30:43.504Z,100.00
2023-04-28T12:33:24.942Z,100.00
2023-04-28T12:35:56.010Z,100.00
2023-04-28T12:38:24.618Z,100.00
2023-04-28T12:40:53.859Z,100.00
2023-04-28T12:43:23.906Z,100.00
2023-04-28T12:45:53.313Z,100.00
2023-04-28T12:48:23.686Z,100.00
2023-04-28T12:50:52.401Z,100.00
2023-04-28T12:53:21.948Z,100.00
2023-04-28T12:55:50.197Z,100.00
2023-04-28T12:58:18.444Z,100.00
2023-04-28T13:00:46.689Z,100.00
2023-04-28T13:03:15.867Z,100.00
2023-04-28T13:05:44.243Z,100.00
2023-04-28T13:08:12.886Z,100.00
2023-04-28T13:10:42.698Z,100.00
2023-04-28T13:13:10.902Z,100.00
2023-04-28T13:15:39.336Z,100.00
2023-04-28T13:18:08.054Z,100.00
2023-04-28T13:20:36.296Z,100.00
2023-04-28T13:23:04.562Z,100.00
2023-04-28T13:25:32.817Z,100.00
2023-04-28T13:28:02.398Z,100.00
2023-04-28T13:30:30.595Z,100.00
2023-04-28T13:32:59.064Z,100.00
2023-04-28T13:35:27.595Z,100.00
2023-04-28T13:38:01.800Z,100.00
2023-04-28T13:40:30.123Z,100.00
2023-04-28T13:42:58.416Z,100.00
2023-04-28T13:45:28.695Z,100.00
2023-04-28T13:47:56.994Z,100.00
2023-04-28T13:50:25.205Z,100.00
2023-04-28T13:52:54.066Z,100.00
2023-04-28T13:55:27.620Z,100.00
2023-04-28T13:57:56.533Z,100.00
2023-04-28T14:00:24.799Z,100.00
2023-04-28T14:02:54.586Z,100.00
2023-04-28T14:05:49.675Z,100.00
2023-04-28T14:08:20.403Z,100.00
2023-04-28T14:10:50.164Z,100.00
2023-04-28T14:13:19.001Z,100.00
2023-04-28T14:15:58.501Z,100.00
2023-04-28T14:18:29.261Z,100.00
2023-04-28T14:20:57.580Z,100.00
2023-04-28T14:23:26.714Z,100.00
2023-04-28T14:25:56.138Z,100.00
2023-04-28T14:28:24.494Z,100.00
2023-04-28T14:30:54.670Z,100.00
2023-04-28T14:33:22.998Z,100.00
2023-04-28T14:35:52.648Z,100.00
2023-04-28T14:38:21.035Z,100.00
2023-04-28T14:40:49.486Z,100.00
2023-04-28T14:43:17.722Z,100.00
2023-04-28T14:45:46.294Z,100.00
2023-04-28T14:48:15.409Z,100.00
2023-04-28T14:50:44.610Z,100.00
2023-04-28T14:53:14.188Z,100.00
2023-04-28T14:55:42.536Z,100.00
2023-04-28T14:58:10.745Z,100.00
2023-04-28T15:00:39.034Z,100.00
2023-04-28T15:03:08.878Z,100.00
2023-04-28T15:05:37.208Z,100.00
2023-04-28T15:08:06.096Z,100.00
2023-04-28T15:10:40.499Z,100.00
2023-04-28T15:13:09.051Z,100.00
2023-04-28T15:15:37.541Z,100.00
2023-04-28T15:18:06.069Z,100.00
2023-04-28T15:20:37.404Z,100.00
2023-04-28T15:23:05.715Z,100.00
2023-04-28T15:25:35.662Z,100.00
2023-04-28T15:28:07.074Z,100.00
2023-04-28T15:30:35.477Z,100.00
2023-04-28T15:33:04.285Z,100.00
2023-04-28T15:35:34.922Z,100.00
2023-04-28T15:38:03.155Z,100.00
2023-04-28T15:40:31.362Z,100.00
2023-04-28T15:43:00.983Z,100.00
2023-04-28T15:45:29.249Z,100.00
2023-04-28T15:47:57.545Z,100.00
2023-04-28T15:50:26.079Z,100.00
2023-04-28T15:52:54.333Z,100.00
2023-04-28T15:55:25.010Z,100.00
2023-04-28T15:57:53.470Z,100.00
2023-04-28T16:00:23.070Z,100.00
2023-04-28T16:02:54.306Z,100.00
2023-04-28T16:05:23.234Z,100.00
2023-04-28T16:07:52.669Z,100.00
2023-04-28T16:10:22.923Z,100.00
2023-04-28T16:12:51.648Z,100.00
2023-04-28T16:15:20.074Z,100.00
2023-04-28T16:17:51.264Z,100.00
2023-04-28T16:20:20.946Z,100.00
2023-04-28T16:22:49.245Z,100.00
2023-04-28T16:25:17.487Z,100.00
2023-04-28T16:27:46.123Z,100.00
2023-04-28T16:30:14.556Z,100.00
2023-04-28T16:32:42.909Z,100.00
2023-04-28T16:35:15.075Z,100.00
2023-04-28T16:37:44.154Z,100.00
2023-04-28T16:40:15.199Z,100.00
2023-04-28T16:42:44.948Z,100.00
2023-04-28T16:45:14.359Z,100.00
2023-04-28T16:47:43.746Z,100.00
2023-04-28T16:50:15.557Z,100.00
2023-04-28T16:52:43.920Z,100.00
2023-04-28T16:55:12.555Z,100.00
2023-04-28T16:57:41.485Z,100.00
2023-04-28T17:00:11.963Z,100.00
2023-04-28T17:02:40.359Z,100.00
2023-04-28T17:05:10.210Z,100.00
2023-04-28T17:07:39.720Z,100.00
2023-04-28T17:10:09.366Z,100.00
2023-04-28T17:12:37.568Z,100.00
2023-04-28T17:15:07.484Z,100.00
2023-04-28T17:17:36.043Z,100.00
2023-04-28T17:20:06.050Z,100.00
2023-04-28T17:22:35.401Z,100.00
2023-04-28T17:25:06.621Z,100.00
2023-04-28T17:27:34.859Z,100.00
2023-04-28T17:30:03.336Z,100.00
2023-04-28T17:32:33.445Z,100.00
2023-04-28T17:35:01.909Z,100.00
2023-04-28T17:37:32.615Z,100.00
2023-04-28T17:40:00.966Z,100.00
2023-04-28T17:42:32.450Z,100.00
2023-04-28T17:45:00.812Z,100.00
2023-04-28T17:47:29.052Z,100.00
2023-04-28T17:49:57.687Z,100.00
2023-04-28T17:52:25.946Z,100.00
2023-04-28T17:54:54.364Z,100.00
2023-04-28T17:57:22.590Z,100.00
2023-04-28T17:59:52.820Z,100.00
2023-04-28T18:02:21.803Z,100.00
2023-04-28T18:05:39.146Z,100.00
2023-04-28T18:08:08.192Z,100.00
2023-04-28T18:10:36.457Z,100.00
2023-04-28T18:13:06.249Z,100.00
2023-04-28T18:15:36.102Z,100.00
2023-04-28T18:18:04.517Z,100.00
2023-04-28T18:20:33.210Z,100.00
2023-04-28T18:23:01.987Z,100.00
2023-04-28T18:25:32.221Z,100.00
2023-04-28T18:28:00.464Z,100.00
2023-04-28T18:30:37.766Z,100.00
2023-04-28T18:33:10.123Z,100.00
2023-04-28T18:35:38.591Z,100.00
2023-04-28T18:38:07.273Z,100.00
2023-04-28T18:40:37.603Z,100.00
2023-04-28T18:43:06.865Z,100.00
2023-04-28T18:45:39.174Z,100.00
2023-04-28T18:48:09.687Z,100.00
2023-04-28T18:50:38.017Z,100.00
2023-04-28T18:53:06.713Z,100.00
2023-04-28T18:55:35.078Z,100.00
2023-04-28T18:58:04.060Z,100.00
2023-04-28T19:00:34.161Z,100.00
2023-04-28T19:03:05.722Z,100.00
2023-04-28T19:05:35.506Z,100.00
2023-04-28T19:08:06.524Z,100.00
2023-04-28T19:10:37.858Z,100.00
2023-04-28T19:13:10.709Z,100.00
2023-04-28T19:15:39.508Z,100.00
2023-04-28T19:18:08.047Z,100.00
2023-04-28T19:20:37.661Z,100.00
2023-04-28T19:23:05.971Z,100.00
2023-04-28T19:25:36.798Z,100.00
2023-04-28T19:28:06.231Z,100.00
2023-04-28T19:30:34.682Z,100.00
2023-04-28T19:33:02.950Z,100.00
2023-04-28T19:35:31.262Z,100.00
2023-04-28T19:38:01.123Z,100.00
2023-04-28T19:40:30.423Z,100.00
2023-04-28T19:43:00.033Z,100.00
2023-04-28T19:45:28.426Z,100.00
2023-04-28T19:47:56.797Z,100.00
2023-04-28T19:50:25.106Z,100.00
2023-04-28T19:52:53.329Z,100.00
2023-04-28T19:55:23.796Z,100.00
2023-04-28T19:57:55.209Z,100.00
2023-04-28T20:00:25.566Z,100.00
2023-04-28T20:02:55.194Z,100.00
2023-04-28T20:05:24.013Z,100.00
2023-04-28T20:08:04.940Z,100.00
2023-04-28T20:10:42.437Z,100.00
2023-04-28T20:13:10.930Z,100.00
2023-04-28T20:15:40.146Z,100.00
2023-04-28T20:18:08.452Z,100.00
2023-04-28T20:20:36.674Z,100.00
2023-04-28T20:23:04.853Z,100.00
2023-04-28T20:25:37.454Z,100.00
2023-04-28T20:28:07.710Z,100.00
2023-04-28T20:30:36.475Z,100.00
2023-04-28T20:33:04.993Z,100.00
2023-04-28T20:35:33.269Z,100.00
2023-04-28T20:38:01.926Z,100.00
2023-04-28T20:40:30.732Z,100.00
2023-04-28T20:43:01.616Z,100.00
2023-04-28T20:45:32.036Z,100.00
2023-04-28T20:48:00.272Z,100.00
2023-04-28T20:50:33.202Z,100.00
2023-04-28T20:53:01.707Z,100.00
2023-04-28T20:55:29.919Z,100.00
2023-04-28T20:57:58.479Z,100.00
2023-04-28T21:00:26.730Z,100.00
2023-04-28T21:02:56.424Z,100.00
2023-04-28T21:05:24.736Z,100.00
2023-04-28T21:07:52.897Z,100.00
2023-04-28T21:10:21.117Z,100.00
2023-04-28T21:12:49.390Z,100.00
2023-04-28T21:15:18.006Z,100.00
2023-04-28T21:17:46.328Z,100.00
2023-04-28T21:20:16.135Z,100.00
2023-04-28T21:22:44.782Z,100.00
2023-04-28T21:25:17.157Z,100.00
2023-04-28T21:27:45.382Z,100.00
2023-04-28T21:30:14.764Z,100.00
2023-04-28T21:32:43.118Z,100.00
2023-04-28T21:35:11.790Z,100.00
2023-04-28T21:37:41.733Z,100.00
2023-04-28T21:40:10.883Z,100.00
2023-04-28T21:42:39.332Z,100.00
2023-04-28T21:45:09.861Z,100.00
2023-04-28T21:47:38.130Z,100.00
2023-04-28T21:50:08.423Z,100.00
2023-04-28T21:52:36.595Z,100.00
2023-04-28T21:55:07.887Z,100.00
2023-04-28T21:57:36.064Z,100.00
2023-04-28T22:00:06.342Z,100.00
2023-04-28T22:02:42.019Z,100.00
2023-04-28T22:05:19.036Z,100.00
2023-04-28T22:07:48.595Z,100.00
2023-04-28T22:10:19.387Z,100.00
2023-04-28T22:12:47.894Z,100.00
2023-04-28T22:15:16.132Z,100.00
2023-04-28T22:17:44.405Z,100.00
2023-04-28T22:20:13.710Z,100.00
2023-04-28T22:22:43.118Z,100.00
2023-04-28T22:25:11.649Z,100.00
2023-04-28T22:27:41.346Z,100.00
2023-04-28T22:30:11.105Z,100.00
2023-04-28T22:32:39.782Z,100.00
2023-04-28T22:35:09.685Z,100.00
2023-04-28T22:37:38.467Z,100.00
2023-04-28T22:40:09.137Z,100.00
2023-04-28T22:42:38.020Z,100.00
2023-04-28T22:45:10.171Z,100.00
2023-04-28T22:47:40.615Z,100.00
2023-04-28T22:50:11.181Z,100.00
2023-04-28T22:52:40.100Z,100.00
2023-04-28T22:55:09.345Z,100.00
2023-04-28T22:57:37.549Z,100.00
2023-04-28T23:00:09.260Z,100.00
2023-04-28T23:02:37.634Z,100.00
2023-04-28T23:05:07.099Z,100.00
2023-04-28T23:07:35.328Z,100.00
2023-04-28T23:10:05.081Z,100.00
2023-04-28T23:12:33.554Z,100.00
2023-04-28T23:15:01.959Z,100.00
2023-04-28T23:17:31.508Z,100.00
2023-04-28T23:19:59.739Z,100.00
2023-04-28T23:22:27.987Z,100.00
2023-04-28T23:24:56.199Z,100.00
2023-04-28T23:27:24.390Z,100.00
2023-04-28T23:29:53.519Z,100.00
2023-04-28T23:32:21.710Z,100.00
2023-04-28T23:34:51.256Z,100.00
2023-04-28T23:37:19.426Z,100.00
2023-04-28T23:39:47.721Z,100.00
2023-04-28T23:42:16.325Z,100.00
2023-04-28T23:44:45.615Z,100.00
2023-04-28T23:47:14.584Z,100.00
2023-04-28T23:49:43.260Z,100.00
2023-04-28T23:52:12.892Z,100.00
2023-04-28T23:54:41.448Z,100.00
2023-04-28T23:57:09.684Z,100.00
2023-04-28T23:59:37.940Z,100.00
